Time;durP1;ratioP1;P1;durP2;ratioP2;P2;SDS_P1;SDS_P2;PMS_P1;PMS_P2;Temp;Humidity;BMP_temperature;BMP_pressure;BME280_temperature;BME280_humidity;BME280_pressure;Samples;Min_cycle;Max_cycle;Signal;HPM_P1;HPM_P2
2021/11/13 00:02:02;;;;;;;28.80;17.03;;;;;;;6.10;62.89;95365.06;5034552;28;20427;-80
2021/11/13 00:04:29;;;;;;;24.50;15.73;;;;;;;6.11;63.26;95370.16;5034851;28;20426;-80
2021/11/13 00:06:55;;;;;;;38.87;19.70;;;;;;;5.94;63.28;95367.72;5035057;28;20510;-81
2021/11/13 00:09:24;;;;;;;30.93;17.90;;;;;;;5.79;64.39;95369.44;5034242;28;20675;-80
2021/11/13 00:11:51;;;;;;;27.33;17.40;;;;;;;5.70;64.49;95376.91;5033991;28;20492;-81
2021/11/13 00:14:20;;;;;;;33.83;16.90;;;;;;;5.63;64.60;95380.81;5034368;28;20441;-81
2021/11/13 00:16:47;;;;;;;25.47;17.53;;;;;;;5.69;64.17;95375.25;5034543;28;20434;-81
2021/11/13 00:19:14;;;;;;;30.40;18.47;;;;;;;5.72;65.16;95381.09;5033882;28;20430;-81
2021/11/13 00:21:53;;;;;;;23.50;16.47;;;;;;;5.77;64.86;95373.88;5034300;28;20445;-81
2021/11/13 00:24:20;;;;;;;29.60;18.37;;;;;;;5.80;66.08;95371.09;5034662;28;20442;-81
2021/11/13 00:26:50;;;;;;;23.70;15.80;;;;;;;5.82;65.59;95374.47;5034436;28;20525;-81
2021/11/13 00:29:17;;;;;;;22.23;14.97;;;;;;;5.83;65.81;95372.69;5034343;28;20781;-81
2021/11/13 00:31:44;;;;;;;26.80;16.20;;;;;;;5.78;65.96;95372.97;5035512;28;20493;-80
2021/11/13 00:34:11;;;;;;;23.67;13.97;;;;;;;5.75;65.76;95369.69;5019869;28;20434;-81
2021/11/13 00:36:38;;;;;;;22.97;14.80;;;;;;;5.74;66.86;95368.84;5038652;28;20438;-81
2021/11/13 00:39:05;;;;;;;23.80;16.00;;;;;;;5.74;66.40;95376.66;5037632;28;20430;-81
2021/11/13 00:41:32;;;;;;;23.90;15.07;;;;;;;5.67;66.73;95366.69;5038002;28;20434;-81
2021/11/13 00:44:00;;;;;;;21.77;14.40;;;;;;;5.70;67.39;95380.34;5019172;28;20438;-81
2021/11/13 00:46:27;;;;;;;27.10;16.10;;;;;;;5.69;67.77;95370.03;5037861;28;20776;-81
2021/11/13 00:48:54;;;;;;;25.30;14.80;;;;;;;5.68;67.21;95369.19;5019064;28;20429;-81
2021/11/13 00:51:21;;;;;;;21.97;14.13;;;;;;;5.61;67.78;95370.50;5037933;28;20826;-81
2021/11/13 00:53:48;;;;;;;19.97;12.80;;;;;;;5.63;67.70;95373.00;5037587;28;20469;-81
2021/11/13 00:56:15;;;;;;;18.93;12.07;;;;;;;5.59;67.41;95367.13;5038163;28;20474;-81
2021/11/13 00:58:42;;;;;;;15.30;12.17;;;;;;;5.59;67.52;95361.94;5037470;28;20434;-80
2021/11/13 01:01:10;;;;;;;20.30;12.20;;;;;;;5.59;66.63;95360.16;5037754;28;20456;-80
2021/11/13 01:03:37;;;;;;;14.80;10.40;;;;;;;5.55;67.50;95360.44;5037538;28;20446;-80
2021/11/13 01:06:04;;;;;;;20.40;12.47;;;;;;;5.58;67.76;95358.50;5037705;28;20444;-80
2021/11/13 01:08:31;;;;;;;20.57;12.20;;;;;;;5.63;68.16;95360.81;5037506;28;20449;-80
2021/11/13 01:10:58;;;;;;;26.30;11.37;;;;;;;5.48;67.48;95359.09;5037846;28;20504;-81
2021/11/13 01:13:25;;;;;;;15.80;11.97;;;;;;;5.51;67.90;95367.59;5019023;28;20422;-81
2021/11/13 01:15:52;;;;;;;13.17;10.10;;;;;;;5.46;68.25;95359.19;5037244;28;21136;-81
2021/11/13 01:18:20;;;;;;;18.50;11.40;;;;;;;5.48;68.21;95359.94;5038400;28;20433;-81
2021/11/13 01:20:47;;;;;;;22.20;12.07;;;;;;;5.45;67.92;95362.72;5038776;28;20454;-81
2021/11/13 01:23:14;;;;;;;25.50;18.60;;;;;;;5.45;67.68;95357.50;5038430;28;20442;-81
2021/11/13 01:25:41;;;;;;;22.10;17.50;;;;;;;5.47;68.38;95358.25;5038324;28;20442;-81
2021/11/13 01:28:09;;;;;;;26.97;17.30;;;;;;;5.46;68.68;95364.38;5036855;28;20442;-81
2021/11/13 01:30:36;;;;;;;23.87;13.07;;;;;;;5.41;67.83;95358.59;5018790;28;20500;-81
2021/11/13 01:33:03;;;;;;;20.60;13.17;;;;;;;5.39;67.61;95357.84;5018906;28;20945;-81
2021/11/13 01:35:31;;;;;;;18.93;15.13;;;;;;;5.37;68.73;95348.47;5037410;28;20434;-81
2021/11/13 01:37:58;;;;;;;23.30;14.60;;;;;;;5.38;69.51;95350.97;5036789;28;20445;-81
2021/11/13 01:40:27;;;;;;;25.77;15.27;;;;;;;5.42;69.20;95352.47;5037406;28;20444;-80
2021/11/13 01:42:56;;;;;;;27.30;14.30;;;;;;;5.41;69.63;95350.81;5036975;28;20453;-80
2021/11/13 01:45:23;;;;;;;23.17;13.97;;;;;;;5.40;69.73;95354.34;5037710;28;20437;-81
2021/11/13 01:47:50;;;;;;;21.33;14.30;;;;;;;5.41;70.22;95343.00;5037047;28;20463;-80
2021/11/13 01:50:21;;;;;;;22.00;13.80;;;;;;;5.43;69.33;95338.53;5037669;28;20453;-81
2021/11/13 01:52:51;;;;;;;19.73;12.50;;;;;;;5.46;69.53;95345.31;5038309;28;20438;-81
2021/11/13 01:55:20;;;;;;;16.57;12.77;;;;;;;5.47;68.94;95342.63;5036128;28;20486;-82
2021/11/13 01:57:48;;;;;;;17.77;13.13;;;;;;;5.48;69.31;95336.50;5037503;28;20442;-81
2021/11/13 02:00:19;;;;;;;21.17;12.40;;;;;;;5.49;69.38;95343.41;5037665;28;20995;-82
2021/11/13 02:02:46;;;;;;;12.60;10.27;;;;;;;5.51;69.31;95338.13;5037426;28;20434;-82
2021/11/13 02:05:13;;;;;;;27.20;13.17;;;;;;;5.51;69.73;95327.72;5037306;28;20949;-81
2021/11/13 02:07:40;;;;;;;21.57;12.50;;;;;;;5.52;68.62;95332.81;5037350;28;20430;-80
2021/11/13 02:10:10;;;;;;;18.33;11.73;;;;;;;5.52;69.66;95335.44;5037904;28;20457;-81
2021/11/13 02:12:37;;;;;;;15.47;10.73;;;;;;;5.52;69.45;95335.44;5037801;28;20474;-80
2021/11/13 02:15:05;;;;;;;18.90;11.57;;;;;;;5.52;69.47;95338.03;5036920;28;20491;-81
2021/11/13 02:17:32;;;;;;;16.80;10.13;;;;;;;5.53;69.91;95336.25;5037196;28;20525;-81
2021/11/13 02:20:26;;;;;;;26.63;11.70;;;;;;;5.54;69.61;95336.16;5037031;28;20441;-80
2021/11/13 02:22:58;;;;;;;12.93;10.47;;;;;;;5.55;68.77;95337.84;5036389;28;20446;-81
2021/11/13 02:25:27;;;;;;;13.93;10.87;;;;;;;5.53;69.03;95328.47;5036826;28;20450;-81
2021/11/13 02:27:55;;;;;;;19.87;11.03;;;;;;;5.57;69.20;95329.94;5036555;28;20940;-81
2021/11/13 02:30:22;;;;;;;18.80;11.47;;;;;;;5.54;69.31;95341.38;5036694;28;20540;-81
2021/11/13 02:32:50;;;;;;;15.43;11.10;;;;;;;5.55;68.72;95330.03;5036900;28;20439;-81
2021/11/13 02:35:18;;;;;;;19.87;12.13;;;;;;;5.53;69.41;95339.69;5036947;28;20426;-81
2021/11/13 02:37:47;;;;;;;13.40;11.10;;;;;;;5.53;69.63;95334.50;5037106;28;20441;-80
2021/11/13 02:40:15;;;;;;;15.77;11.03;;;;;;;5.53;69.46;95334.50;5036599;28;20457;-80
2021/11/13 02:42:42;;;;;;;17.30;10.67;;;;;;;5.50;68.94;95332.06;5036748;28;20448;-80
2021/11/13 02:45:12;;;;;;;19.80;11.70;;;;;;;5.53;69.41;95334.50;5036607;28;20441;-81
2021/11/13 02:47:41;;;;;;;16.37;9.67;;;;;;;5.55;69.59;95337.00;5036441;28;20445;-80
2021/11/13 02:50:11;;;;;;;14.37;10.10;;;;;;;5.54;69.25;95335.34;5036193;28;20464;-81
2021/11/13 02:52:47;;;;;;;15.00;11.33;;;;;;;5.57;68.62;95335.16;5036327;28;20485;-80
2021/11/13 02:55:14;;;;;;;15.67;10.00;;;;;;;5.58;68.57;95335.06;5035183;28;20701;-80
2021/11/13 02:57:42;;;;;;;13.63;9.27;;;;;;;5.60;69.11;95338.41;5001291;28;20925;-80
2021/11/13 03:00:13;;;;;;;16.83;10.00;;;;;;;5.61;68.48;95336.66;5035511;28;20430;-82
2021/11/13 03:02:40;;;;;;;14.37;9.17;;;;;;;5.60;68.74;95334.97;5036231;28;20456;-82
2021/11/13 03:05:22;;;;;;;14.67;8.20;;;;;;;5.54;69.22;95340.53;5036198;28;20464;-81
2021/11/13 03:07:51;;;;;;;13.57;9.60;;;;;;;5.48;68.17;95339.09;5037431;28;20442;-81
2021/11/13 03:10:19;;;;;;;19.07;11.53;;;;;;;5.50;68.79;95342.47;5017548;28;20445;-80
2021/11/13 03:12:46;;;;;;;18.60;12.13;;;;;;;5.41;67.88;95334.34;5035580;28;20488;-80
2021/11/13 03:15:17;;;;;;;29.30;12.90;;;;;;;5.27;68.81;95343.78;5035001;28;20957;-81
2021/11/13 03:17:44;;;;;;;22.90;13.70;;;;;;;5.01;69.18;95340.97;5035542;28;20434;-80
2021/11/13 03:20:14;;;;;;;18.70;13.67;;;;;;;4.94;69.22;95351.72;5035550;28;20924;-81
2021/11/13 03:22:42;;;;;;;50.77;28.70;;;;;;;4.87;69.22;95345.16;5017265;28;20445;-80
2021/11/13 03:25:13;;;;;;;59.50;36.00;;;;;;;4.82;70.01;95351.56;5035135;28;20431;-80
2021/11/13 03:27:59;;;;;;;67.00;36.00;;;;;;;4.72;70.80;95351.22;5035052;28;20434;-81
2021/11/13 03:30:26;;;;;;;30.90;22.73;;;;;;;4.61;71.08;95348.34;5035253;28;20878;-82
2021/11/13 03:32:54;;;;;;;34.40;23.07;;;;;;;4.52;71.76;95361.84;5034458;28;20487;-80
2021/11/13 03:35:27;;;;;;;40.20;22.60;;;;;;;4.50;72.07;95363.69;5034669;28;20434;-81
2021/11/13 03:37:54;;;;;;;44.13;24.13;;;;;;;4.50;72.04;95363.69;5033176;28;20442;-80
2021/11/13 03:40:23;;;;;;;38.40;22.50;;;;;;;4.49;72.70;95360.25;5033240;28;20442;-81
2021/11/13 03:42:50;;;;;;;30.80;21.43;;;;;;;4.52;72.50;95359.25;5035303;28;20446;-81
2021/11/13 03:45:17;;;;;;;32.37;21.57;;;;;;;4.53;72.56;95360.94;5034651;28;20438;-81
2021/11/13 03:47:44;;;;;;;36.97;23.07;;;;;;;4.53;72.95;95360.94;5034521;28;20451;-81
2021/11/13 03:50:11;;;;;;;41.83;23.63;;;;;;;4.56;73.11;95360.75;5016281;28;20926;-81
2021/11/13 03:52:38;;;;;;;38.13;22.30;;;;;;;4.58;73.41;95364.13;5034497;28;20480;-81
2021/11/13 03:55:06;;;;;;;38.13;22.27;;;;;;;4.60;72.67;95357.91;5034875;28;20484;-82
2021/11/13 03:57:34;;;;;;;36.40;23.40;;;;;;;4.62;72.84;95360.41;5016477;28;20446;-81
2021/11/13 04:00:02;;;;;;;40.03;23.80;;;;;;;4.65;73.20;95347.28;5034653;28;20527;-82
2021/11/13 04:02:29;;;;;;;44.40;25.00;;;;;;;4.67;72.87;95353.25;5034579;28;20470;-81
2021/11/13 04:04:56;;;;;;;40.07;24.80;;;;;;;4.70;73.07;95355.66;5000013;28;20426;-80
2021/11/13 04:07:23;;;;;;;45.80;27.17;;;;;;;4.70;73.54;95353.06;5034011;28;20453;-82
2021/11/13 04:09:50;;;;;;;41.43;25.23;;;;;;;4.71;72.72;95365.16;5034478;28;20948;-81
2021/11/13 04:12:17;;;;;;;41.13;24.10;;;;;;;4.70;73.36;95352.22;5034357;28;20490;-82
2021/11/13 04:14:46;;;;;;;42.07;25.53;;;;;;;4.70;72.97;95358.28;5034091;28;20889;-81
2021/11/13 04:17:13;;;;;;;49.53;26.93;;;;;;;4.68;72.97;95357.50;5034569;28;20492;-81
2021/11/13 04:19:41;;;;;;;39.37;25.67;;;;;;;4.64;72.21;95356.84;5034166;28;20796;-81
2021/11/13 04:22:08;;;;;;;36.87;24.10;;;;;;;4.63;72.57;95356.94;5033789;28;20449;-82
2021/11/13 04:24:35;;;;;;;43.57;24.43;;;;;;;4.60;72.94;95357.06;5033962;28;20442;-82
2021/11/13 04:27:02;;;;;;;37.07;23.17;;;;;;;4.59;73.49;95356.22;5034302;28;20452;-80
2021/11/13 04:29:29;;;;;;;40.43;24.97;;;;;;;4.57;73.37;95362.44;5034260;28;20442;-80
2021/11/13 04:31:58;;;;;;;35.77;23.37;;;;;;;4.54;73.22;95357.41;5034624;28;20469;-80
2021/11/13 04:34:28;;;;;;;37.60;23.57;;;;;;;4.56;73.43;95364.19;5034163;28;20442;-80
2021/11/13 04:36:59;;;;;;;38.60;24.20;;;;;;;4.58;73.25;95359.75;5034532;28;20422;-81
2021/11/13 04:39:27;;;;;;;43.83;25.00;;;;;;;4.57;72.76;95365.03;5034446;28;20442;-80
2021/11/13 04:41:55;;;;;;;39.20;25.33;;;;;;;4.53;73.24;95366.13;5034399;28;20434;-80
2021/11/13 04:44:22;;;;;;;54.30;25.70;;;;;;;4.46;73.33;95362.19;5034242;28;20434;-82
2021/11/13 04:46:49;;;;;;;44.93;26.90;;;;;;;4.45;74.06;95371.75;5034659;28;20807;-80
2021/11/13 04:49:18;;;;;;;48.67;26.90;;;;;;;4.37;73.10;95367.88;5034114;28;20442;-80
2021/11/13 04:51:45;;;;;;;46.80;28.03;;;;;;;4.33;73.67;95372.38;5034195;28;20534;-81
2021/11/13 04:54:12;;;;;;;48.23;27.60;;;;;;;4.24;73.82;95370.25;5034336;28;20453;-80
2021/11/13 04:56:39;;;;;;;54.13;30.50;;;;;;;4.14;73.85;95374.28;5034705;28;20470;-80
2021/11/13 04:59:06;;;;;;;59.73;29.00;;;;;;;4.09;74.22;95376.28;5033735;28;20436;-81
2021/11/13 05:01:34;;;;;;;79.93;41.70;;;;;;;4.02;74.15;95379.16;5034014;28;20433;-80
2021/11/13 05:04:24;;;;;;;69.57;37.47;;;;;;;3.98;74.12;95377.63;5033933;28;20433;-81
2021/11/13 05:06:51;;;;;;;62.53;33.77;;;;;;;3.94;74.34;95378.72;5033944;28;20452;-80
2021/11/13 05:09:18;;;;;;;61.07;37.03;;;;;;;3.91;75.63;95385.84;5033763;28;20446;-82
2021/11/13 05:11:45;;;;;;;66.17;35.77;;;;;;;3.94;75.11;95377.88;5033883;28;20481;-82
2021/11/13 05:14:11;;;;;;;74.30;33.73;;;;;;;3.96;75.14;95386.44;5033998;28;20434;-81
2021/11/13 05:16:38;;;;;;;68.50;33.97;;;;;;;4.01;74.90;95381.84;5033407;28;20937;-81
2021/11/13 05:19:08;;;;;;;70.80;33.30;;;;;;;4.06;75.04;95382.47;5035322;28;20448;-81
2021/11/13 05:21:37;;;;;;;51.93;30.73;;;;;;;4.10;74.86;95383.13;5035528;28;20450;-81
2021/11/13 05:24:04;;;;;;;68.20;30.07;;;;;;;4.15;74.61;95392.38;5037540;28;20449;-81
2021/11/13 05:26:31;;;;;;;58.47;29.97;;;;;;;4.16;75.08;95386.25;5037174;28;20431;-81
2021/11/13 05:28:58;;;;;;;61.00;30.20;;;;;;;4.17;74.21;95384.50;5036974;28;20804;-81
2021/11/13 05:31:25;;;;;;;44.17;28.90;;;;;;;4.18;74.96;95387.00;5036855;28;20450;-82
2021/11/13 05:33:52;;;;;;;46.63;25.87;;;;;;;4.19;74.13;95391.28;5035763;28;20831;-81
2021/11/13 05:36:19;;;;;;;54.17;27.53;;;;;;;4.23;74.94;95384.16;5017918;28;20436;-82
2021/11/13 05:38:47;;;;;;;46.13;25.07;;;;;;;4.24;74.50;95386.69;5017754;28;21243;-82
2021/11/13 05:41:15;;;;;;;49.70;26.00;;;;;;;4.62;75.28;95394.22;5017702;28;20807;-82
2021/11/13 05:43:42;;;;;;;55.43;26.77;;;;;;;5.62;73.12;95394.75;5035959;28;20446;-82
2021/11/13 05:46:09;;;;;;;35.17;23.67;;;;;;;6.81;68.72;95397.16;5036244;28;20955;-82
2021/11/13 05:48:36;;;;;;;52.27;26.57;;;;;;;7.86;63.50;95400.00;5035880;28;20535;-82
2021/11/13 05:51:03;;;;;;;47.43;26.60;;;;;;;8.89;59.65;95401.72;5036291;28;20416;-82
2021/11/13 05:53:30;;;;;;;45.50;25.80;;;;;;;9.51;56.39;95399.88;5035838;28;20492;-82
2021/11/13 05:55:58;;;;;;;63.03;29.50;;;;;;;9.35;55.37;95404.56;5033931;28;20473;-82
2021/11/13 05:58:25;;;;;;;53.43;28.83;;;;;;;9.24;55.77;95407.09;5017404;28;20439;-82
2021/11/13 06:00:52;;;;;;;64.23;32.40;;;;;;;9.14;56.54;95406.09;5035769;28;20916;-82
2021/11/13 06:03:19;;;;;;;67.33;29.00;;;;;;;9.01;56.55;95408.75;5017291;28;20457;-82
2021/11/13 06:05:46;;;;;;;61.83;27.70;;;;;;;8.68;56.01;95404.91;5052242;28;20523;-82
2021/11/13 06:08:13;;;;;;;43.03;24.53;;;;;;;8.01;57.84;95412.03;5055233;28;20444;-81
2021/11/13 06:10:40;;;;;;;30.27;20.10;;;;;;;7.42;60.13;95405.50;5056585;28;20433;-81
2021/11/13 06:13:09;;;;;;;36.07;20.40;;;;;;;6.75;62.93;95407.97;5055048;28;20572;-82
2021/11/13 06:15:36;;;;;;;38.63;24.10;;;;;;;6.77;63.60;95408.72;5020752;28;21016;-82
2021/11/13 06:31:31;;;;;;;52.63;30.90;;;;;;;6.93;66.94;95420.78;5053925;28;20425;-81
2021/11/13 06:33:58;;;;;;;52.97;26.30;;;;;;;7.21;65.93;95414.69;5055223;28;20584;-82
2021/11/13 06:36:25;;;;;;;46.13;26.67;;;;;;;7.36;64.27;95422.41;5055130;28;20429;-82
2021/11/13 06:38:52;;;;;;;52.40;31.60;;;;;;;7.30;64.26;95412.34;5054827;28;20434;-81
2021/11/13 06:41:19;;;;;;;61.30;37.27;;;;;;;7.27;65.03;95411.72;5055782;28;20505;-88
2021/11/13 06:43:46;;;;;;;86.03;49.80;;;;;;;7.05;63.77;95414.84;5021462;28;20499;-89
2021/11/13 06:46:13;;;;;;;64.77;41.67;;;;;;;6.87;64.51;95421.19;5057760;28;20839;-85
2021/11/13 06:48:41;;;;;;;64.47;39.13;;;;;;;6.82;64.83;95424.91;5054721;28;20438;-89
2021/11/13 06:51:08;;;;;;;60.83;40.30;;;;;;;6.74;66.21;95418.50;5054820;28;20450;-88
2021/11/13 06:53:35;;;;;;;63.80;40.20;;;;;;;6.84;66.77;95417.00;5054652;28;20498;-84
2021/11/13 06:56:02;;;;;;;69.80;43.10;;;;;;;6.91;66.96;95420.06;5055272;28;20481;-83
2021/11/13 06:58:30;;;;;;;67.93;40.70;;;;;;;6.84;67.52;95414.38;5054374;28;20468;-86
2021/11/13 07:00:57;;;;;;;62.83;37.73;;;;;;;6.95;67.25;95417.19;5054825;28;20625;-87
2021/11/13 07:03:24;;;;;;;67.57;36.93;;;;;;;7.04;68.05;95419.22;5054910;28;20938;-84
2021/11/13 07:05:52;;;;;;;52.77;33.07;;;;;;;7.09;67.80;95417.16;5054860;28;20468;-85
2021/11/13 07:08:19;;;;;;;51.63;33.73;;;;;;;7.23;67.67;95421.50;5055049;28;20962;-87
2021/11/13 07:10:52;;;;;;;49.60;32.90;;;;;;;7.26;67.42;95417.88;5054905;28;20540;-89
2021/11/13 07:23:43;;;;;;;38.83;24.00;;;;;;;7.02;67.58;95423.69;5054134;28;20401;-82
2021/11/13 07:26:12;;;;;;;53.87;36.00;;;;;;;7.04;67.30;95410.53;5055338;28;20540;-87
2021/11/13 07:28:41;;;;;;;42.13;26.23;;;;;;;6.95;68.27;95417.19;5054971;28;20450;-87
2021/11/13 07:31:10;;;;;;;32.10;20.30;;;;;;;6.95;68.10;95418.97;5055064;28;20787;-84
2021/11/13 07:33:38;;;;;;;37.90;23.57;;;;;;;7.07;68.83;95411.19;5054491;28;20983;-83
2021/11/13 07:36:05;;;;;;;30.03;22.73;;;;;;;7.01;67.88;95410.75;5054302;28;20484;-84
2021/11/13 07:38:32;;;;;;;34.07;22.40;;;;;;;7.18;68.10;95418.34;5054234;28;20476;-85
2021/11/13 07:41:01;;;;;;;41.70;23.10;;;;;;;7.25;67.47;95409.19;5055127;28;20811;-86
2021/11/13 07:43:28;;;;;;;36.33;20.40;;;;;;;7.30;66.43;95414.97;5054923;28;20459;-85
2021/11/13 07:52:38;;;;;;;39.47;27.60;;;;;;;7.59;67.34;95422.69;5053643;28;20585;-90
2021/11/13 07:55:06;;;;;;;35.00;24.07;;;;;;;7.74;67.64;95419.91;5055205;28;20513;-86
2021/11/13 07:57:34;;;;;;;37.87;24.73;;;;;;;7.86;66.63;95423.53;5055454;28;20877;-86
2021/11/13 08:00:02;;;;;;;41.57;23.90;;;;;;;7.92;65.81;95417.06;5053950;28;20528;-85
2021/11/13 08:02:29;;;;;;;37.80;23.50;;;;;;;7.86;65.62;95415.69;5055216;28;20449;-86
2021/11/13 08:04:56;;;;;;;45.20;25.47;;;;;;;9.48;100.00;95412.34;5055720;28;20465;-86
2021/11/13 08:07:23;;;;;;;44.80;21.90;;;;;;;10.67;87.43;95427.09;5054570;28;20451;-85
2021/11/13 08:09:50;;;;;;;30.17;21.00;;;;;;;11.25;68.29;95417.31;5054160;28;20478;-86
2021/11/13 08:12:18;;;;;;;32.17;23.10;;;;;;;11.25;60.63;95420.78;5053867;28;20957;-84
2021/11/13 08:14:46;;;;;;;31.37;21.67;;;;;;;11.05;58.34;95411.88;5055523;28;20783;-87
2021/11/13 08:17:13;;;;;;;38.27;21.57;;;;;;;10.71;57.81;95418.06;5036486;28;20935;-83
2021/11/13 08:19:40;;;;;;;29.47;20.60;;;;;;;10.41;57.41;95422.06;5055050;28;20455;-86
2021/11/13 08:22:07;;;;;;;36.97;24.07;;;;;;;10.00;57.95;95419.03;5055386;28;20442;-84
2021/11/13 08:24:36;;;;;;;31.80;21.63;;;;;;;10.01;60.22;95404.97;5055828;28;20457;-86
2021/11/13 08:27:04;;;;;;;31.03;17.20;;;;;;;9.98;60.23;95407.84;5055159;28;20428;-86
2021/11/13 08:29:31;;;;;;;33.93;19.60;;;;;;;9.98;59.66;95407.84;5054397;28;20438;-83
2021/11/13 08:31:59;;;;;;;35.17;22.83;;;;;;;9.99;60.95;95409.50;5054297;28;20443;-84
2021/11/13 08:34:26;;;;;;;37.90;20.53;;;;;;;10.03;61.56;95418.81;5055112;28;20572;-85
2021/11/13 08:36:54;;;;;;;37.80;19.70;;;;;;;10.08;61.21;95407.03;5054156;28;20552;-83
2021/11/13 08:39:22;;;;;;;37.23;20.87;;;;;;;10.13;61.24;95406.72;5056789;28;20459;-86
2021/11/13 08:41:49;;;;;;;32.33;21.20;;;;;;;9.90;59.55;95403.16;5056304;28;20542;-87
2021/11/13 08:44:16;;;;;;;28.87;21.17;;;;;;;9.96;59.27;95388.75;5054393;28;20506;-84
2021/11/13 08:46:44;;;;;;;33.00;21.27;;;;;;;9.93;58.31;95379.34;5054833;28;20456;-86
2021/11/13 08:52:34;;;;;;;34.67;20.77;;;;;;;9.92;57.74;95389.00;5055014;28;20427;-86
2021/11/13 08:55:01;;;;;;;29.67;18.20;;;;;;;9.81;56.75;95386.31;5058435;28;21004;-87
2021/11/13 08:57:28;;;;;;;31.77;19.47;;;;;;;9.88;57.17;95381.47;5058528;28;21025;-88
2021/11/13 08:59:56;;;;;;;33.47;20.63;;;;;;;9.85;58.03;95382.53;5057821;28;20551;-89
2021/11/13 09:02:26;;;;;;;27.07;18.03;;;;;;;9.88;58.18;95371.00;5058345;28;20455;-88
2021/11/13 09:04:55;;;;;;;26.83;19.30;;;;;;;9.96;57.79;95367.78;5058356;28;20856;-88
2021/11/13 09:14:12;;;;;;;34.57;19.40;;;;;;;10.25;57.78;95376.97;5059497;28;20522;-87
2021/11/13 09:16:39;;;;;;;34.00;21.00;;;;;;;10.34;57.83;95365.75;5064084;28;20476;-86
2021/11/13 09:19:07;;;;;;;39.93;22.47;;;;;;;10.43;57.20;95362.44;5063104;28;21068;-86
2021/11/13 09:21:34;;;;;;;36.07;21.37;;;;;;;10.59;57.41;95350.75;5058919;28;20485;-89
2021/11/13 09:24:02;;;;;;;39.13;21.10;;;;;;;10.76;56.48;95360.78;5065611;28;20556;-89
2021/11/13 09:26:55;;;;;;;37.27;22.03;;;;;;;10.82;56.64;95355.06;5066843;28;20450;-87
2021/11/13 09:36:07;;;;;;;34.83;20.27;;;;;;;11.03;55.10;95339.41;4979847;28;20416;-86
2021/11/13 09:38:39;;;;;;;45.20;21.80;;;;;;;11.10;55.58;95336.16;4981136;28;20859;-87
2021/11/13 09:41:08;;;;;;;35.53;23.90;;;;;;;11.22;55.18;95346.66;4981569;28;20437;-87
2021/11/13 09:43:36;;;;;;;40.23;20.60;;;;;;;11.32;54.55;95329.19;4981222;28;20438;-87
2021/11/13 09:46:06;;;;;;;33.73;20.70;;;;;;;11.42;54.56;95330.13;4980735;28;20608;-86
2021/11/13 09:48:33;;;;;;;40.40;23.70;;;;;;;11.50;54.11;95327.69;4981245;28;20533;-86
2021/11/13 09:51:03;;;;;;;40.70;22.80;;;;;;;11.45;54.56;95328.06;4980016;28;20932;-88
2021/11/13 09:53:33;;;;;;;46.17;21.27;;;;;;;11.44;54.73;95325.56;4980279;28;20502;-89
2021/11/13 09:56:01;;;;;;;32.97;20.07;;;;;;;11.35;53.29;95323.69;4978721;28;20485;-89
2021/11/13 09:58:32;;;;;;;40.03;21.93;;;;;;;11.35;54.56;95324.53;4979203;28;20485;-86
2021/11/13 10:00:59;;;;;;;30.00;19.77;;;;;;;11.40;54.13;95316.28;4979934;28;20488;-87
2021/11/13 10:03:26;;;;;;;32.20;19.73;;;;;;;11.51;53.95;95308.34;4981513;28;20479;-90
2021/11/13 10:05:55;;;;;;;33.43;18.90;;;;;;;11.69;52.98;95313.88;4980372;28;20537;-86
2021/11/13 10:08:23;;;;;;;31.23;20.43;;;;;;;11.78;53.46;95300.84;4966067;28;20553;-89
2021/11/13 10:10:58;;;;;;;36.10;21.27;;;;;;;11.85;52.36;95298.53;4961037;29;20472;-87
2021/11/13 10:13:32;;;;;;;31.27;19.30;;;;;;;11.96;52.31;95297.66;4967524;28;21002;-86
2021/11/13 10:16:02;;;;;;;30.20;18.60;;;;;;;12.07;51.25;95298.41;4978016;28;20536;-86
2021/11/13 10:18:30;;;;;;;40.83;21.00;;;;;;;12.15;49.99;95297.78;4986500;28;20452;-86
2021/11/13 10:21:05;;;;;;;31.07;18.77;;;;;;;12.17;50.16;95284.50;5058481;28;20473;-87
2021/11/13 10:23:40;;;;;;;28.63;18.33;;;;;;;12.15;49.58;95283.78;5060139;28;20459;-82
2021/11/13 10:26:13;;;;;;;28.50;20.43;;;;;;;12.22;49.89;95272.63;5059823;28;20486;-89
2021/11/13 10:28:44;;;;;;;32.20;18.00;;;;;;;12.25;50.63;95264.47;5042005;28;20523;-84
2021/11/13 10:31:13;;;;;;;30.83;18.30;;;;;;;12.30;50.06;95264.06;5038410;28;20456;-87
2021/11/13 10:33:40;;;;;;;25.67;17.93;;;;;;;12.34;49.09;95261.03;5056692;28;20573;-86
2021/11/13 10:36:08;;;;;;;23.90;18.07;;;;;;;12.39;49.32;95252.72;5057178;28;20471;-86
2021/11/13 10:38:35;;;;;;;29.90;17.73;;;;;;;12.42;49.97;95249.84;5056687;28;20524;-88
2021/11/13 10:41:06;;;;;;;23.90;16.20;;;;;;;12.45;48.88;95248.75;5056591;28;20552;-86
2021/11/13 10:43:37;;;;;;;25.20;16.50;;;;;;;12.48;49.88;95251.97;5056222;28;20804;-87
2021/11/13 10:46:07;;;;;;;35.47;19.93;;;;;;;12.49;49.98;95252.78;5056715;28;20476;-88
2021/11/13 10:48:39;;;;;;;39.03;20.00;;;;;;;12.50;51.10;95254.47;5056776;28;20818;-89
2021/11/13 10:51:09;;;;;;;38.07;19.20;;;;;;;12.43;50.93;95250.66;5021905;28;20447;-90
2021/11/13 10:53:38;;;;;;;26.10;17.53;;;;;;;12.35;49.97;95240.81;5056212;28;20489;-88
2021/11/13 10:56:10;;;;;;;26.13;15.63;;;;;;;12.29;49.58;95246.59;5056401;28;20476;-89
2021/11/13 10:58:42;;;;;;;25.33;17.13;;;;;;;12.38;50.00;95243.16;5056239;28;20453;-87
2021/11/13 11:01:11;;;;;;;30.07;15.97;;;;;;;12.45;50.01;95240.88;5057036;28;20453;-87
2021/11/13 11:03:40;;;;;;;33.23;16.90;;;;;;;12.51;50.36;95241.16;5057855;28;20454;-89
2021/11/13 11:06:10;;;;;;;28.83;17.80;;;;;;;12.48;49.93;95227.44;5055788;28;21005;-87
2021/11/13 11:08:40;;;;;;;23.80;15.90;;;;;;;12.65;49.57;95232.88;5055611;28;20451;-88
2021/11/13 11:11:25;;;;;;;24.47;15.10;;;;;;;12.74;48.77;95228.63;5056114;28;20443;-87
2021/11/13 11:13:59;;;;;;;18.77;14.80;;;;;;;12.85;47.85;95223.25;5020627;28;20491;-83
2021/11/13 11:16:31;;;;;;;27.67;16.73;;;;;;;12.93;48.59;95228.66;5054457;28;20443;-85
2021/11/13 11:19:08;;;;;;;25.20;16.60;;;;;;;13.01;49.58;95215.66;5054942;28;20860;-85
2021/11/13 11:21:44;;;;;;;22.90;15.20;;;;;;;13.08;47.48;95221.19;5054760;28;20441;-85
2021/11/13 11:24:15;;;;;;;20.30;14.30;;;;;;;13.12;47.31;95208.56;5054522;28;20429;-85
2021/11/13 11:26:45;;;;;;;25.30;15.10;;;;;;;13.14;47.11;95210.09;5054860;28;20930;-83
2021/11/13 11:29:14;;;;;;;25.90;17.03;;;;;;;13.10;46.64;95202.63;5059359;28;20462;-90
2021/11/13 11:31:47;;;;;;;25.73;15.27;;;;;;;13.18;47.31;95208.06;5058150;28;20443;-85
2021/11/13 11:34:25;;;;;;;22.13;16.00;;;;;;;13.09;47.00;95193.06;5056144;28;20498;-85
2021/11/13 11:36:57;;;;;;;25.30;16.23;;;;;;;13.13;48.22;95202.34;5056473;28;20455;-85
2021/11/13 11:39:24;;;;;;;19.13;14.10;;;;;;;13.21;47.45;95202.50;5056888;28;20434;-86
2021/11/13 11:41:52;;;;;;;27.87;17.60;;;;;;;13.33;48.43;95186.44;5056494;28;20454;-86
2021/11/13 11:44:22;;;;;;;22.33;15.93;;;;;;;13.40;48.14;95188.50;5057540;28;20461;-87
2021/11/13 11:46:49;;;;;;;31.73;17.50;;;;;;;13.36;48.68;95190.59;5056703;28;20492;-83
2021/11/13 11:49:17;;;;;;;24.30;15.60;;;;;;;13.47;48.58;95190.44;5055107;28;20462;-83
2021/11/13 11:51:45;;;;;;;21.63;16.10;;;;;;;13.53;48.47;95189.88;5056173;28;20800;-83
2021/11/13 11:54:13;;;;;;;29.70;17.43;;;;;;;13.63;49.55;95188.06;5037930;28;20526;-84
2021/11/13 11:56:40;;;;;;;32.73;17.63;;;;;;;13.63;48.19;95187.22;5057617;28;20466;-83
2021/11/13 11:59:08;;;;;;;26.40;16.33;;;;;;;13.67;49.12;95182.50;5055785;28;20442;-85
2021/11/13 12:01:39;;;;;;;24.23;16.93;;;;;;;13.73;49.62;95181.94;5056730;28;20915;-83
2021/11/13 12:04:40;;;;;;;24.33;15.43;;;;;;;13.79;48.34;95176.91;5057087;28;20480;-85
2021/11/13 12:07:09;;;;;;;27.05;16.17;;;;;;;13.84;48.49;95173.84;5016146;28;20443;-87
2021/11/13 12:09:58;;;;;;;25.03;15.93;;;;;;;13.82;47.98;95170.50;5013440;28;20664;-88
2021/11/13 12:12:25;;;;;;;24.33;16.53;;;;;;;13.81;48.08;95167.03;5014109;28;20479;-87
2021/11/13 12:28:24;;;;;;;31.30;19.80;;;;;;;14.02;47.57;95155.47;5013086;28;20453;-84
2021/11/13 12:31:06;;;;;;;33.23;18.37;;;;;;;14.06;48.06;95152.38;5015361;28;20565;-85